Time;durP1;ratioP1;P1;durP2;ratioP2;P2;SDS_P1;SDS_P2;PMS_P1;PMS_P2;Temp;Humidity;BMP_temperature;BMP_pressure;BME280_temperature;BME280_humidity;BME280_pressure;Samples;Min_cycle;Max_cycle;Signal;HPM_P1;HPM_P2
2021/09/09 00:04:27;;;;;;;8.40;7.30;;;24.10;56.60;;;;;;4840746;29;20480;-84
2021/09/09 00:07:14;;;;;;;9.97;7.33;;;24.00;56.50;;;;;;4841022;29;20907;-84
2021/09/09 00:09:57;;;;;;;8.40;6.20;;;24.10;56.60;;;;;;4841470;29;20499;-84
2021/09/09 00:19:07;;;;;;;;;;;;;;;;;;;;;
2021/09/09 00:21:59;;;;;;;9.33;7.13;;;24.00;56.40;;;;;;4841179;29;20432;-84
2021/09/09 00:24:36;;;;;;;8.27;6.97;;;24.10;56.50;;;;;;4825487;29;20468;-84
2021/09/09 00:27:17;;;;;;;8.50;7.60;;;24.00;56.50;;;;;;4841288;29;20423;-84
2021/09/09 00:30:06;;;;;;;7.80;6.23;;;24.00;56.40;;;;;;4826039;29;20485;-84
2021/09/09 00:33:08;;;;;;;;;;;;;;;;;;;;;
2021/09/09 00:35:46;;;;;;;8.30;7.00;;;24.00;56.30;;;;;;4842463;29;20440;-84
2021/09/09 00:38:28;;;;;;;7.30;6.63;;;24.00;56.30;;;;;;4902575;29;20813;-86
2021/09/09 00:40:54;;;;;;;7.77;6.83;;;24.00;56.30;;;;;;4927483;29;20435;-86
2021/09/09 00:43:22;;;;;;;7.57;6.77;;;24.00;56.30;;;;;;4927013;29;20503;-86
2021/09/09 00:45:55;;;;;;;7.20;6.50;;;24.10;56.30;;;;;;4927389;29;20891;-86
2021/09/09 00:48:22;;;;;;;7.60;6.90;;;24.00;56.20;;;;;;4926762;29;20790;-86
2021/09/09 00:50:48;;;;;;;8.17;6.93;;;24.00;56.20;;;;;;4928851;29;20419;-86
2021/09/09 00:53:17;;;;;;;7.77;6.90;;;24.10;56.20;;;;;;4928531;29;20409;-86
2021/09/09 00:55:44;;;;;;;7.87;7.00;;;24.00;56.20;;;;;;4928134;29;20412;-86
2021/09/09 00:58:10;;;;;;;7.40;6.70;;;24.10;56.10;;;;;;4926328;29;20782;-86
2021/09/09 01:00:44;;;;;;;7.83;6.77;;;24.00;56.10;;;;;;4928439;29;20412;-86
2021/09/09 01:03:10;;;;;;;7.43;6.43;;;24.10;56.10;;;;;;4927361;29;20422;-86
2021/09/09 01:05:37;;;;;;;6.97;6.27;;;24.00;56.10;;;;;;4927449;29;20447;-86
2021/09/09 01:08:04;;;;;;;7.40;6.57;;;24.00;56.10;;;;;;4928725;29;20235;-86
2021/09/09 01:10:33;;;;;;;6.97;6.33;;;24.00;56.10;;;;;;4927849;29;20420;-86
2021/09/09 01:13:07;;;;;;;7.47;6.77;;;24.00;56.00;;;;;;4929368;29;20439;-86
2021/09/09 01:15:40;;;;;;;6.60;6.00;;;24.00;56.00;;;;;;4930546;29;20451;-86
2021/09/09 01:18:11;;;;;;;7.43;6.57;;;24.00;56.00;;;;;;4917188;29;20507;-86
2021/09/09 01:20:40;;;;;;;8.07;7.27;;;24.00;56.00;;;;;;4931024;29;20470;-86
2021/09/09 01:23:07;;;;;;;7.07;6.37;;;24.00;56.00;;;;;;4931145;29;20420;-86
2021/09/09 01:25:38;;;;;;;7.10;6.40;;;24.00;55.90;;;;;;4933899;29;20473;-86
2021/09/09 01:28:05;;;;;;;7.87;7.10;;;24.00;55.90;;;;;;4931533;29;20411;-86
2021/09/09 01:30:31;;;;;;;7.07;6.43;;;24.00;55.90;;;;;;4929976;29;20415;-86
2021/09/09 01:32:57;;;;;;;7.40;6.70;;;24.00;55.90;;;;;;4913178;29;20408;-86
2021/09/09 01:35:23;;;;;;;7.53;6.83;;;24.00;56.50;;;;;;4929603;29;20458;-86
2021/09/09 01:37:51;;;;;;;7.03;6.43;;;24.00;55.90;;;;;;4930546;29;20485;-86
2021/09/09 01:40:27;;;;;;;8.17;7.37;;;24.00;55.90;;;;;;4929924;29;20223;-86
2021/09/09 01:42:53;;;;;;;7.97;7.20;;;24.00;55.90;;;;;;4913201;29;20424;-86
2021/09/09 01:45:19;;;;;;;8.27;7.43;;;24.00;55.90;;;;;;4929607;29;20415;-86
2021/09/09 01:47:48;;;;;;;7.30;6.60;;;24.00;55.90;;;;;;4929136;29;20419;-86
2021/09/09 01:50:17;;;;;;;7.97;7.20;;;24.00;55.90;;;;;;4930287;29;20267;-86
2021/09/09 01:52:43;;;;;;;7.70;7.00;;;24.00;55.90;;;;;;4928719;29;20514;-86
2021/09/09 01:55:09;;;;;;;8.20;7.47;;;24.00;56.00;;;;;;4913740;29;20428;-86
2021/09/09 01:57:35;;;;;;;7.43;6.73;;;24.00;55.90;;;;;;4929153;29;20556;-86
2021/09/09 02:00:04;;;;;;;10.23;7.20;;;24.00;55.90;;;;;;4913338;29;20530;-86
2021/09/09 02:02:30;;;;;;;7.97;7.27;;;24.00;55.90;;;;;;4930071;29;20239;-86
2021/09/09 02:04:55;;;;;;;7.50;6.33;;;24.10;56.00;;;;;;4930129;29;20435;-86
2021/09/09 02:07:22;;;;;;;8.70;7.87;;;24.00;55.90;;;;;;4931516;29;20176;-86
2021/09/09 02:09:48;;;;;;;8.13;7.33;;;24.10;55.90;;;;;;4933628;29;20276;-86
2021/09/09 02:12:14;;;;;;;7.97;6.97;;;24.10;56.00;;;;;;4932799;29;20588;-86
2021/09/09 02:14:40;;;;;;;8.50;7.70;;;24.10;55.90;;;;;;4932040;29;20205;-86
2021/09/09 02:17:07;;;;;;;7.40;6.70;;;24.10;55.90;;;;;;4933756;29;20408;-86
2021/09/09 02:19:33;;;;;;;8.20;7.33;;;24.00;55.80;;;;;;4932525;29;20551;-85
2021/09/09 02:21:59;;;;;;;8.40;6.87;;;24.00;55.80;;;;;;4931645;29;20420;-86
2021/09/09 02:24:25;;;;;;;10.20;7.50;;;24.00;55.80;;;;;;4932254;29;20427;-86
2021/09/09 02:26:51;;;;;;;8.30;7.50;;;24.00;55.80;;;;;;4930352;29;20176;-86
2021/09/09 02:29:17;;;;;;;7.40;6.70;;;24.00;55.70;;;;;;4931260;29;20443;-86
2021/09/09 02:31:43;;;;;;;7.50;6.80;;;24.00;55.70;;;;;;4929414;29;20180;-86
2021/09/09 02:34:09;;;;;;;7.37;6.67;;;24.00;55.70;;;;;;4913608;29;20798;-86
2021/09/09 02:36:35;;;;;;;7.20;6.50;;;24.00;55.70;;;;;;4929537;29;20480;-86
2021/09/09 02:39:01;;;;;;;8.13;7.33;;;24.00;55.70;;;;;;4930775;29;20816;-86
2021/09/09 02:41:27;;;;;;;7.40;6.70;;;24.00;55.70;;;;;;4931015;29;20176;-86
2021/09/09 02:43:53;;;;;;;10.60;6.63;;;24.00;55.60;;;;;;4930858;29;20417;-86
2021/09/09 02:46:22;;;;;;;7.80;7.00;;;24.00;55.60;;;;;;4929062;29;20208;-86
2021/09/09 02:48:48;;;;;;;8.03;7.23;;;24.00;55.60;;;;;;4914318;29;20550;-86
2021/09/09 02:51:17;;;;;;;7.63;6.73;;;24.00;55.60;;;;;;4933204;29;20419;-86
2021/09/09 02:53:45;;;;;;;8.80;7.90;;;24.00;55.60;;;;;;4932515;29;20424;-86
2021/09/09 02:56:11;;;;;;;7.23;6.53;;;24.00;55.60;;;;;;4933584;29;20419;-86
2021/09/09 02:58:37;;;;;;;8.30;7.60;;;24.00;55.60;;;;;;4933420;29;20463;-86
2021/09/09 03:01:05;;;;;;;8.00;7.20;;;24.00;55.50;;;;;;4931706;29;20476;-86
2021/09/09 03:03:34;;;;;;;7.67;6.77;;;24.00;55.50;;;;;;4932417;29;20420;-86
2021/09/09 03:06:03;;;;;;;6.83;6.23;;;24.00;55.50;;;;;;4918555;29;20451;-86
2021/09/09 03:08:32;;;;;;;8.67;7.73;;;24.00;55.50;;;;;;4935298;29;20451;-86
2021/09/09 03:11:01;;;;;;;8.93;8.13;;;24.00;55.50;;;;;;4933625;29;20914;-85
2021/09/09 03:13:27;;;;;;;7.67;6.97;;;24.00;55.50;;;;;;4934021;29;20446;-86
2021/09/09 03:15:53;;;;;;;7.40;6.73;;;24.00;55.50;;;;;;4934615;29;20907;-86
2021/09/09 03:18:20;;;;;;;9.37;7.37;;;23.90;55.40;;;;;;4933116;29;20451;-86
2021/09/09 03:20:46;;;;;;;7.23;6.40;;;23.90;55.30;;;;;;4935045;29;20242;-86
2021/09/09 03:23:14;;;;;;;8.03;7.10;;;23.90;55.30;;;;;;4934644;29;20463;-86
2021/09/09 03:25:44;;;;;;;7.73;7.03;;;24.00;55.40;;;;;;4931947;29;20176;-86
2021/09/09 03:28:11;;;;;;;8.57;7.77;;;23.90;55.30;;;;;;4931582;29;20463;-86
2021/09/09 03:30:37;;;;;;;7.83;7.13;;;23.90;55.30;;;;;;4932596;29;20767;-86
2021/09/09 03:33:03;;;;;;;8.17;7.33;;;23.90;55.20;;;;;;4932107;29;20420;-86
2021/09/09 03:35:29;;;;;;;7.60;6.90;;;23.90;55.20;;;;;;4930701;29;20428;-86
2021/09/09 03:37:58;;;;;;;8.13;7.33;;;23.90;55.20;;;;;;4931548;29;20426;-86
2021/09/09 03:40:30;;;;;;;7.37;6.27;;;23.90;55.10;;;;;;4931699;29;20475;-86
2021/09/09 03:42:56;;;;;;;7.40;6.70;;;23.90;55.10;;;;;;4932203;29;20424;-87
2021/09/09 03:45:24;;;;;;;7.47;6.77;;;23.90;55.10;;;;;;4932154;29;20422;-87
2021/09/09 03:47:50;;;;;;;8.70;7.03;;;23.90;55.10;;;;;;4932496;29;20497;-86
2021/09/09 03:50:16;;;;;;;7.10;6.40;;;23.80;55.00;;;;;;4931575;29;20416;-87
2021/09/09 03:52:41;;;;;;;8.20;7.40;;;23.80;54.90;;;;;;4934451;29;20521;-86
2021/09/09 03:55:08;;;;;;;8.20;7.40;;;23.80;54.90;;;;;;4933090;29;20238;-86
2021/09/09 03:57:34;;;;;;;8.53;7.60;;;23.80;54.90;;;;;;4932797;29;20176;-87
2021/09/09 04:00:02;;;;;;;7.70;7.00;;;23.80;54.90;;;;;;4934371;29;20925;-87
2021/09/09 04:02:28;;;;;;;7.07;6.37;;;23.80;54.90;;;;;;4917189;29;20432;-86
2021/09/09 04:04:55;;;;;;;7.80;7.10;;;23.80;54.80;;;;;;4932155;29;20427;-87
2021/09/09 04:07:21;;;;;;;8.03;7.23;;;23.80;54.80;;;;;;4917728;29;20179;-86
2021/09/09 04:09:47;;;;;;;7.77;7.07;;;23.80;54.80;;;;;;4932628;29;20981;-86
2021/09/09 04:12:13;;;;;;;6.80;6.10;;;23.80;54.80;;;;;;4947087;29;20543;-86
2021/09/09 04:14:39;;;;;;;8.90;7.60;;;23.80;54.80;;;;;;4949387;29;20237;-86
2021/09/09 04:17:05;;;;;;;8.53;6.80;;;23.80;54.70;;;;;;4950506;29;20423;-86
2021/09/09 04:19:31;;;;;;;7.90;7.10;;;23.80;54.70;;;;;;4949452;29;20467;-86
2021/09/09 04:22:03;;;;;;;8.50;7.70;;;23.80;54.70;;;;;;4949412;29;20423;-86
2021/09/09 04:24:40;;;;;;;8.07;7.03;;;23.80;54.70;;;;;;4933685;29;20430;-86
2021/09/09 04:27:06;;;;;;;7.77;6.97;;;23.80;54.70;;;;;;4933295;29;20443;-86
2021/09/09 04:29:58;;;;;;;6.97;6.37;;;23.70;54.60;;;;;;4933131;29;20422;-86
2021/09/09 04:32:24;;;;;;;8.30;7.60;;;23.80;54.70;;;;;;4933844;29;20427;-86
2021/09/09 04:34:50;;;;;;;7.53;6.83;;;23.70;54.60;;;;;;4949876;29;20415;-86
2021/09/09 04:37:19;;;;;;;8.33;7.40;;;23.70;54.60;;;;;;4949040;29;20509;-86
2021/09/09 04:39:48;;;;;;;7.30;6.60;;;23.70;54.60;;;;;;4949981;29;20466;-86
2021/09/09 04:42:14;;;;;;;7.80;7.00;;;23.80;54.70;;;;;;4949647;29;20423;-86
2021/09/09 04:44:39;;;;;;;7.73;7.03;;;23.80;54.70;;;;;;4949156;29;20850;-85
2021/09/09 04:47:05;;;;;;;7.87;7.17;;;23.80;54.70;;;;;;4951484;29;20443;-85
2021/09/09 04:49:34;;;;;;;8.10;6.70;;;23.80;54.70;;;;;;4934475;29;20194;-87
2021/09/09 04:51:59;;;;;;;8.10;7.30;;;23.80;54.70;;;;;;4952220;29;20217;-87
2021/09/09 04:54:25;;;;;;;7.33;6.67;;;23.80;54.70;;;;;;4951001;29;20427;-87
2021/09/09 04:56:51;;;;;;;8.20;7.40;;;23.80;54.70;;;;;;4950432;29;20183;-86
2021/09/09 04:59:17;;;;;;;8.07;6.73;;;23.80;54.70;;;;;;4951338;29;20629;-87
2021/09/09 05:01:48;;;;;;;7.90;7.20;;;23.80;54.60;;;;;;4950495;29;20179;-87
2021/09/09 05:07:36;;;;;;;8.77;6.97;;;23.80;54.60;;;;;;4952204;29;20410;-87
2021/09/09 05:10:06;;;;;;;7.40;6.80;;;23.70;55.10;;;;;;4932717;29;20443;-87
2021/09/09 05:12:32;;;;;;;8.17;7.37;;;23.80;54.70;;;;;;4947755;29;20963;-87
2021/09/09 05:15:02;;;;;;;7.37;6.63;;;23.80;54.70;;;;;;4932120;29;21029;-87
2021/09/09 05:17:37;;;;;;;9.30;7.63;;;23.80;54.70;;;;;;4949975;29;20914;-87
2021/09/09 05:20:04;;;;;;;6.87;6.27;;;23.80;54.60;;;;;;4949008;29;20486;-86
2021/09/09 05:22:33;;;;;;;8.03;7.23;;;23.80;54.60;;;;;;4932993;29;20489;-86
2021/09/09 05:25:07;;;;;;;7.27;6.57;;;23.80;54.60;;;;;;4932285;29;20419;-87
2021/09/09 05:27:33;;;;;;;8.30;7.40;;;23.80;54.60;;;;;;4933265;29;20889;-86
2021/09/09 05:29:59;;;;;;;8.43;7.57;;;23.80;54.60;;;;;;4949982;29;20446;-86
2021/09/09 05:32:27;;;;;;;8.40;7.57;;;23.80;54.60;;;;;;4933155;29;20419;-86
2021/09/09 05:35:09;;;;;;;8.50;7.33;;;23.80;54.60;;;;;;4949429;29;20692;-86
2021/09/09 05:37:56;;;;;;;9.90;8.20;;;23.80;54.60;;;;;;4949648;29;20407;-85
2021/09/09 05:40:22;;;;;;;8.23;7.03;;;23.80;54.50;;;;;;4948169;29;20465;-86
2021/09/09 05:42:50;;;;;;;6.73;6.13;;;23.80;54.60;;;;;;4949290;29;20425;-86
2021/09/09 05:45:19;;;;;;;6.47;5.87;;;23.80;54.70;;;;;;4950878;29;20176;-87
2021/09/09 05:47:45;;;;;;;6.53;5.90;;;23.80;54.70;;;;;;4950262;29;20423;-86
2021/09/09 05:50:11;;;;;;;6.20;5.57;;;23.80;54.80;;;;;;4953732;29;20465;-86
2021/09/09 05:52:37;;;;;;;8.80;6.87;;;23.80;54.80;;;;;;4932183;29;20431;-86
2021/09/09 05:55:07;;;;;;;6.33;5.73;;;23.80;54.70;;;;;;4947773;29;20428;-85
2021/09/09 05:57:36;;;;;;;5.17;4.77;;;23.80;54.70;;;;;;4954907;29;20435;-85
2021/09/09 06:00:03;;;;;;;5.97;5.47;;;23.90;54.70;;;;;;4935184;29;20466;-87
2021/09/09 06:02:29;;;;;;;6.53;5.93;;;23.90;54.70;;;;;;4950514;28;20866;-86
2021/09/09 06:05:02;;;;;;;6.00;5.40;;;23.90;54.70;;;;;;4951690;29;20426;-86
2021/09/09 06:07:28;;;;;;;6.30;5.70;;;23.90;54.60;;;;;;4949132;29;20441;-86
2021/09/09 06:09:54;;;;;;;7.10;6.30;;;23.90;54.60;;;;;;4949754;29;20435;-86
2021/09/09 06:12:26;;;;;;;7.53;6.60;;;23.90;54.60;;;;;;4950345;29;20411;-86
2021/09/09 06:14:52;;;;;;;8.80;6.53;;;23.90;54.60;;;;;;4949566;29;20201;-86
2021/09/09 06:17:17;;;;;;;6.63;6.00;;;23.90;54.60;;;;;;4949168;29;20411;-86
2021/09/09 06:19:46;;;;;;;7.40;6.50;;;23.90;54.50;;;;;;4949902;29;20486;-86
2021/09/09 06:22:15;;;;;;;6.10;5.60;;;24.00;54.60;;;;;;4948758;29;20171;-86
2021/09/09 06:24:41;;;;;;;5.87;5.27;;;24.00;54.50;;;;;;4951594;29;20433;-87
2021/09/09 06:27:07;;;;;;;6.60;6.00;;;24.00;54.50;;;;;;4953873;29;20411;-86
2021/09/09 06:29:32;;;;;;;7.00;6.30;;;24.00;54.50;;;;;;4952845;29;20182;-87
2021/09/09 06:32:01;;;;;;;7.37;5.83;;;24.00;54.50;;;;;;4953508;29;20419;-87
2021/09/09 06:34:27;;;;;;;6.23;5.63;;;24.00;54.50;;;;;;4936693;29;20186;-86
2021/09/09 06:36:53;;;;;;;7.37;5.60;;;24.00;54.50;;;;;;4953634;29;20459;-86
2021/09/09 06:39:22;;;;;;;7.50;6.80;;;24.00;54.50;;;;;;4955361;29;20458;-85
2021/09/09 06:41:49;;;;;;;6.00;5.40;;;24.00;54.50;;;;;;4943512;29;20431;-85
2021/09/09 06:44:19;;;;;;;8.23;5.73;;;24.10;54.70;;;;;;4960704;29;20441;-86
2021/09/09 06:46:51;;;;;;;6.60;5.43;;;24.10;54.60;;;;;;4946050;29;20470;-85
2021/09/09 06:52:40;;;;;;;6.47;5.87;;;24.10;54.60;;;;;;4952290;29;20408;-86
2021/09/09 06:55:07;;;;;;;7.43;6.57;;;24.10;54.70;;;;;;4953582;29;20423;-86
2021/09/09 06:57:33;;;;;;;5.73;5.13;;;24.10;54.70;;;;;;4953208;29;20183;-84
2021/09/09 07:00:00;;;;;;;6.30;5.70;;;24.20;54.80;;;;;;4949825;29;20996;-85
2021/09/09 07:02:25;;;;;;;8.70;5.67;;;24.20;54.80;;;;;;4950772;29;20450;-84
2021/09/09 07:04:54;;;;;;;6.87;5.70;;;24.20;54.80;;;;;;4948015;29;20418;-84
2021/09/09 07:07:20;;;;;;;7.27;6.13;;;24.20;54.80;;;;;;4948546;29;20203;-84
2021/09/09 07:09:46;;;;;;;6.43;5.83;;;24.20;54.80;;;;;;4950555;29;20423;-85
2021/09/09 07:12:12;;;;;;;6.03;5.43;;;24.20;54.80;;;;;;4949604;29;20435;-85
2021/09/09 07:14:37;;;;;;;7.07;6.37;;;24.20;54.80;;;;;;4949185;29;20206;-86
2021/09/09 07:17:03;;;;;;;6.53;5.83;;;24.30;54.80;;;;;;4950054;29;20434;-86
2021/09/09 07:19:32;;;;;;;5.63;5.13;;;24.30;54.70;;;;;;4951180;29;20281;-85
2021/09/09 07:22:05;;;;;;;6.43;5.70;;;24.40;54.80;;;;;;4949609;29;20829;-85
2021/09/09 07:24:34;;;;;;;6.13;5.60;;;24.40;54.80;;;;;;4948764;29;20796;-84
2021/09/09 07:27:03;;;;;;;6.13;5.53;;;24.40;54.80;;;;;;4933368;29;20566;-83
2021/09/09 07:29:29;;;;;;;6.70;5.43;;;24.40;54.80;;;;;;4950031;29;20750;-85
2021/09/09 07:32:51;;;;;;;5.67;4.80;;;24.50;54.90;;;;;;4948196;29;20423;-86
2021/09/09 07:35:28;;;;;;;8.50;5.37;;;24.50;54.90;;;;;;4930750;29;20474;-85
2021/09/09 07:38:31;;;;;;;6.10;5.20;;;24.50;55.00;;;;;;4954805;29;20395;-87
2021/09/09 07:40:57;;;;;;;6.17;5.57;;;24.50;55.00;;;;;;4951116;29;20430;-86
2021/09/09 07:43:23;;;;;;;5.83;5.30;;;24.50;55.00;;;;;;4952765;29;20411;-87
2021/09/09 07:45:49;;;;;;;6.63;5.13;;;24.50;55.00;;;;;;4950398;29;20486;-86
2021/09/09 07:48:15;;;;;;;5.33;4.83;;;24.50;55.00;;;;;;4947062;29;20434;-86
2021/09/09 07:50:42;;;;;;;5.90;5.30;;;24.50;55.10;;;;;;4954654;29;20194;-87
2021/09/09 07:53:08;;;;;;;5.43;4.93;;;24.50;55.10;;;;;;4955624;29;20632;-86
2021/09/09 07:55:36;;;;;;;8.23;5.30;;;24.50;55.10;;;;;;4953962;29;20478;-88
2021/09/09 07:58:02;;;;;;;5.93;5.33;;;24.60;55.20;;;;;;4955009;28;20431;-84
2021/09/09 08:00:28;;;;;;;6.40;5.60;;;24.60;55.20;;;;;;4952817;29;20472;-85
2021/09/09 08:02:58;;;;;;;7.80;5.23;;;24.50;55.10;;;;;;4950325;29;20183;-85
2021/09/09 08:05:27;;;;;;;6.00;5.50;;;24.60;55.20;;;;;;4950495;29;20190;-85
2021/09/09 08:07:53;;;;;;;7.20;5.93;;;24.60;55.20;;;;;;4951907;29;20422;-85
2021/09/09 08:10:31;;;;;;;8.67;5.50;;;24.60;55.20;;;;;;4952308;29;20478;-84
2021/09/09 08:13:00;;;;;;;7.00;6.30;;;24.60;55.20;;;;;;4950483;29;20229;-85
2021/09/09 08:15:43;;;;;;;6.43;5.83;;;24.60;55.30;;;;;;4951800;29;20458;-85
2021/09/09 08:18:23;;;;;;;;;;;;;;;;;;;;;
2021/09/09 08:20:56;;;;;;;6.90;6.30;;;24.50;55.20;;;;;;4952134;29;20918;-84
2021/09/09 08:23:49;;;;;;;6.60;6.00;;;24.60;55.40;;;;;;4951492;29;20474;-85
2021/09/09 08:26:17;;;;;;;6.37;5.87;;;24.60;55.30;;;;;;4934610;29;20419;-87
2021/09/09 08:28:48;;;;;;;6.60;5.70;;;24.60;55.40;;;;;;4949986;29;20431;-85
2021/09/09 08:31:24;;;;;;;5.90;5.30;;;24.60;55.40;;;;;;4949740;29;20407;-87
2021/09/09 08:33:58;;;;;;;6.10;5.10;;;24.60;55.40;;;;;;4948111;29;20417;-86
2021/09/09 08:36:28;;;;;;;5.93;5.33;;;24.60;55.40;;;;;;4934486;29;20455;-86
2021/09/09 08:38:54;;;;;;;6.00;5.40;;;24.60;55.50;;;;;;4952633;29;20523;-85
2021/09/09 08:41:21;;;;;;;6.53;5.93;;;24.60;55.50;;;;;;4938901;29;20457;-85
2021/09/09 08:44:10;;;;;;;7.43;6.73;;;24.60;55.50;;;;;;4964360;29;20457;-85
2021/09/09 08:46:50;;;;;;;6.37;5.60;;;24.60;55.50;;;;;;4935489;29;20817;-84
2021/09/09 08:49:28;;;;;;;7.53;5.77;;;24.60;55.50;;;;;;4958937;29;20429;-86
2021/09/09 08:51:56;;;;;;;8.00;6.00;;;24.60;55.50;;;;;;4952386;29;20478;-86
2021/09/09 08:54:46;;;;;;;7.50;6.80;;;24.60;55.50;;;;;;4937761;29;20441;-85
2021/09/09 09:21:00;;;;;;;13.40;6.77;;;24.60;55.80;;;;;;4883187;29;20461;-89
2021/09/09 09:47:12;;;;;;;7.60;6.17;;;24.60;55.90;;;;;;4801765;29;20425;-86
2021/09/09 09:59:56;;;;;;;6.87;6.17;;;24.70;56.00;;;;;;4796912;29;20469;-86
2021/09/09 10:02:42;;;;;;;6.13;5.47;;;24.60;56.00;;;;;;4801834;29;20510;-86
2021/09/09 10:05:35;;;;;;;6.60;5.50;;;24.70;56.00;;;;;;4787240;30;20454;-86
2021/09/09 10:31:46;;;;;;;7.33;6.60;;;24.70;56.10;;;;;;4801336;29;21020;-87
2021/09/09 10:34:27;;;;;;;6.37;5.77;;;24.70;56.10;;;;;;4787290;30;20442;-87
2021/09/09 10:37:04;;;;;;;6.70;5.80;;;24.80;56.20;;;;;;4793317;30;20439;-87
2021/09/09 10:50:33;;;;;;;7.30;6.17;;;24.80;56.10;;;;;;4764937;30;20579;-87
2021/09/09 10:53:09;;;;;;;5.93;5.40;;;24.80;56.10;;;;;;4846285;29;20451;-87
2021/09/09 11:02:45;;;;;;;6.07;5.47;;;24.80;56.20;;;;;;4859372;29;20386;-87
2021/09/09 11:05:14;;;;;;;5.60;5.00;;;24.80;56.20;;;;;;4854783;29;20423;-87
2021/09/09 11:07:42;;;;;;;6.70;5.87;;;24.80;56.20;;;;;;4872726;29;20411;-87
2021/09/09 11:10:24;;;;;;;6.40;5.67;;;24.80;56.20;;;;;;4853433;29;20426;-87
2021/09/09 11:13:03;;;;;;;6.67;5.30;;;24.80;56.20;;;;;;4870386;29;20422;-87
2021/09/09 11:15:34;;;;;;;5.80;5.30;;;24.80;56.10;;;;;;4864612;29;20948;-87
2021/09/09 11:18:03;;;;;;;6.10;5.60;;;24.90;56.20;;;;;;4873673;29;20418;-87
2021/09/09 11:20:34;;;;;;;6.73;5.37;;;24.80;56.10;;;;;;4858037;29;20473;-87
2021/09/09 11:23:12;;;;;;;5.70;5.10;;;24.90;56.10;;;;;;4883868;29;20425;-88
2021/09/09 11:25:48;;;;;;;7.90;5.73;;;24.90;56.10;;;;;;4906180;29;20488;-87
2021/09/09 11:28:19;;;;;;;5.50;5.00;;;24.90;56.10;;;;;;4899892;29;20428;-87
2021/09/09 11:31:07;;;;;;;7.53;5.87;;;24.90;56.20;;;;;;4909240;29;20503;-87
2021/09/09 11:34:04;;;;;;;5.40;4.90;;;24.90;56.10;;;;;;4928466;29;20460;-87
2021/09/09 11:36:42;;;;;;;6.30;5.77;;;24.90;56.10;;;;;;4931797;29;20461;-87
2021/09/09 11:39:16;;;;;;;6.50;5.63;;;24.90;56.20;;;;;;4928144;29;20459;-87
2021/09/09 11:41:45;;;;;;;5.57;5.13;;;24.90;56.20;;;;;;4926652;29;20450;-87
2021/09/09 11:44:44;;;;;;;6.23;5.73;;;24.90;56.20;;;;;;4947818;29;20427;-87
2021/09/09 11:47:25;;;;;;;6.57;5.97;;;24.90;56.20;;;;;;4932498;29;20427;-88
2021/09/09 11:50:01;;;;;;;7.57;5.07;;;24.90;56.20;;;;;;4931420;29;20522;-87
2021/09/09 11:56:19;;;;;;;6.50;5.80;;;24.90;56.20;;;;;;4955181;29;20377;-85
2021/09/09 11:59:03;;;;;;;;;;;;;;;;;;;;;
2021/09/09 12:01:32;;;;;;;6.40;5.80;;;24.90;56.30;;;;;;4967758;29;20446;-84
2021/09/09 12:04:00;;;;;;;6.50;5.90;;;24.90;56.30;;;;;;4953219;29;20829;-84
2021/09/09 12:06:43;;;;;;;5.40;4.90;;;24.90;56.30;;;;;;4954538;29;20422;-85
2021/09/09 12:09:26;;;;;;;5.23;4.73;;;24.90;56.30;;;;;;4955159;29;20426;-84
2021/09/09 12:12:12;;;;;;;5.47;5.07;;;24.90;56.20;;;;;;4955900;29;20426;-84
2021/09/09 12:20:50;;;;;;;5.87;5.37;;;24.90;56.20;;;;;;4972696;28;20457;-84
2021/09/09 12:24:04;;;;;;;6.50;5.77;;;24.90;56.30;;;;;;4954861;29;20418;-84
2021/09/09 12:26:37;;;;;;;6.93;6.20;;;24.90;56.30;;;;;;4949922;29;20435;-85
2021/09/09 12:29:19;;;;;;;6.60;5.50;;;24.90;56.30;;;;;;4951448;29;20937;-84
2021/09/09 12:31:49;;;;;;;5.60;4.77;;;24.90;56.30;;;;;;4968136;29;20412;-84
2021/09/09 12:34:39;;;;;;;6.60;6.00;;;24.90;56.30;;;;;;4950993;29;20509;-84
2021/09/09 12:37:44;;;;;;;5.30;4.73;;;24.90;56.30;;;;;;4968582;28;20844;-85
2021/09/09 12:43:50;;;;;;;;;;;;;;;;;;;;;
2021/09/09 12:46:41;;;;;;;5.77;4.70;;;24.90;56.40;;;;;;4969580;29;20442;-85
2021/09/09 12:49:15;;;;;;;6.13;5.53;;;24.90;56.40;;;;;;4954122;29;20498;-86
2021/09/09 12:51:43;;;;;;;6.00;5.50;;;24.90;56.40;;;;;;4934817;29;20421;-86
2021/09/09 12:54:11;;;;;;;6.07;5.23;;;24.90;56.40;;;;;;4929021;29;20510;-85
2021/09/09 12:56:38;;;;;;;6.90;6.30;;;24.90;56.40;;;;;;4926471;29;20438;-84
2021/09/09 12:59:07;;;;;;;6.20;5.70;;;24.90;56.40;;;;;;4948078;29;20455;-85
2021/09/09 13:01:42;;;;;;;6.20;5.70;;;24.90;56.40;;;;;;4952248;29;20415;-85
2021/09/09 13:04:35;;;;;;;6.30;5.70;;;24.90;56.40;;;;;;4950873;29;20414;-85
2021/09/09 13:07:06;;;;;;;6.40;5.77;;;24.90;56.40;;;;;;4951044;29;20434;-85
2021/09/09 13:09:32;;;;;;;6.60;6.00;;;24.90;56.40;;;;;;4952241;29;20415;-85
2021/09/09 13:12:30;;;;;;;;;;;;;;;;;;;;;
2021/09/09 13:14:58;;;;;;;6.50;5.90;;;24.90;56.40;;;;;;4961716;29;20449;-85
2021/09/09 13:17:46;;;;;;;6.67;6.00;;;24.90;56.50;;;;;;4959036;29;20430;-86
2021/09/09 13:20:20;;;;;;;6.50;5.93;;;24.90;56.50;;;;;;4915218;29;20557;-85
2021/09/09 13:22:56;;;;;;;6.40;5.87;;;24.90;56.50;;;;;;4951829;29;20496;-85
2021/09/09 13:25:38;;;;;;;;;;;;;;;;;;;;;
2021/09/09 13:28:09;;;;;;;6.17;5.57;;;24.90;56.50;;;;;;4970179;29;20445;-86
2021/09/09 13:34:06;;;;;;;7.07;6.47;;;24.90;56.50;;;;;;4933925;29;20442;-85
2021/09/09 13:36:32;;;;;;;5.60;5.10;;;24.80;56.50;;;;;;4939546;29;20464;-86
2021/09/09 13:39:07;;;;;;;7.53;6.83;;;24.80;56.50;;;;;;4953996;29;20821;-86
2021/09/09 13:41:37;;;;;;;7.87;6.97;;;24.90;56.60;;;;;;4954158;29;20565;-85
2021/09/09 13:44:05;;;;;;;7.63;5.37;;;24.90;56.60;;;;;;4953713;29;20466;-85
2021/09/09 13:46:39;;;;;;;6.67;6.10;;;24.90;56.60;;;;;;4955447;29;20414;-86
2021/09/09 13:49:07;;;;;;;6.60;6.00;;;24.90;56.60;;;;;;4970899;29;20943;-85
2021/09/09 13:51:33;;;;;;;6.40;5.80;;;24.90;56.60;;;;;;4950378;29;20455;-85
2021/09/09 13:54:06;;;;;;;9.10;6.63;;;24.90;56.60;;;;;;4951520;29;20422;-85
2021/09/09 14:00:16;;;;;;;7.33;6.40;;;24.90;56.60;;;;;;4875517;29;20470;-85
2021/09/09 14:09:41;;;;;;;8.17;7.37;;;24.80;56.60;;;;;;4783695;29;20409;-86
2021/09/09 14:12:17;;;;;;;7.93;7.23;;;24.80;56.80;;;;;;4767012;30;20424;-86
2021/09/09 14:21:20;;;;;;;7.00;6.40;;;24.80;56.70;;;;;;4727801;30;20463;-86
2021/09/09 14:27:28;;;;;;;7.30;6.60;;;24.80;56.70;;;;;;4746008;29;20446;-87
2021/09/09 14:30:00;;;;;;;7.53;6.80;;;24.80;56.80;;;;;;4742060;30;20476;-87
2021/09/09 14:32:36;;;;;;;6.63;5.83;;;24.80;56.80;;;;;;4728525;30;20438;-86
2021/09/09 14:35:12;;;;;;;8.50;7.60;;;24.90;56.90;;;;;;4741224;30;20456;-87
2021/09/09 14:37:42;;;;;;;6.40;5.90;;;24.90;56.90;;;;;;4818374;29;20425;-87
2021/09/09 14:40:24;;;;;;;6.90;6.20;;;24.90;56.90;;;;;;4803459;29;20476;-87
2021/09/09 14:47:03;;;;;;;7.47;6.77;;;24.90;56.80;;;;;;4915171;29;20942;-85
2021/09/09 14:49:37;;;;;;;7.30;6.60;;;24.90;56.90;;;;;;4956699;29;20434;-86
2021/09/09 14:52:35;;;;;;;7.50;6.80;;;24.90;57.00;;;;;;4955024;29;20433;-86
2021/09/09 14:55:47;;;;;;;6.90;6.30;;;24.90;57.00;;;;;;4955827;29;20548;-86
2021/09/09 14:58:55;;;;;;;6.53;6.00;;;24.90;57.00;;;;;;4915035;29;20426;-86
2021/09/09 15:01:24;;;;;;;7.27;6.67;;;24.90;57.00;;;;;;4936118;29;20430;-86
2021/09/09 15:04:17;;;;;;;7.00;6.40;;;24.90;57.10;;;;;;4957234;29;20419;-86
2021/09/09 15:06:51;;;;;;;7.77;6.97;;;24.90;57.00;;;;;;4954988;29;20423;-86
2021/09/09 15:09:35;;;;;;;7.17;6.50;;;24.90;57.00;;;;;;4955839;29;20421;-85
2021/09/09 15:12:03;;;;;;;7.17;6.57;;;24.90;57.00;;;;;;4938584;29;20442;-85
2021/09/09 15:14:33;;;;;;;11.13;6.77;;;24.90;57.20;;;;;;4954666;29;20479;-86
2021/09/09 15:17:13;;;;;;;6.80;6.20;;;24.90;57.10;;;;;;4960533;29;20509;-85
2021/09/09 15:19:56;;;;;;;6.87;6.23;;;25.00;57.10;;;;;;4975548;29;20473;-85
2021/09/09 15:22:31;;;;;;;7.27;6.67;;;25.00;57.10;;;;;;4936472;29;20456;-85
2021/09/09 15:25:24;;;;;;;6.80;6.20;;;25.00;57.10;;;;;;4919493;29;20423;-85
2021/09/09 15:28:02;;;;;;;6.70;6.10;;;25.00;57.10;;;;;;4919652;29;20439;-86
2021/09/09 15:30:29;;;;;;;6.30;5.70;;;25.00;57.10;;;;;;4935328;29;20419;-85
2021/09/09 15:39:46;;;;;;;6.60;6.00;;;25.00;57.10;;;;;;4877841;29;20471;-84
2021/09/09 15:43:19;;;;;;;;;;;;;;;;;;;;;
2021/09/09 15:56:08;;;;;;;6.67;6.07;;;24.90;57.20;;;;;;4804743;29;20464;-86
2021/09/09 16:05:21;;;;;;;6.70;6.10;;;25.00;57.30;;;;;;4803571;29;20431;-86
2021/09/09 16:07:49;;;;;;;6.67;6.10;;;25.00;57.40;;;;;;4804217;30;20414;-86
2021/09/09 16:10:26;;;;;;;7.23;6.53;;;24.90;57.30;;;;;;4803430;30;20466;-86
2021/09/09 16:12:58;;;;;;;6.73;6.07;;;25.00;57.30;;;;;;4804737;29;20422;-86
2021/09/09 16:15:43;;;;;;;6.30;5.80;;;25.00;57.30;;;;;;4803236;30;20423;-86
2021/09/09 16:24:47;;;;;;;7.57;6.87;;;25.00;57.30;;;;;;4787101;29;20430;-86
2021/09/09 16:27:36;;;;;;;6.73;6.13;;;25.00;57.30;;;;;;4785200;30;20435;-86
2021/09/09 16:30:18;;;;;;;7.13;6.43;;;25.00;57.30;;;;;;4785220;30;20434;-86